createdAt,value
2022-11-27T00:01:25.452Z,11.84
2022-11-27T00:03:54.615Z,11.77
2022-11-27T00:06:25.596Z,11.57
2022-11-27T00:08:53.187Z,11.75
2022-11-27T00:11:23.795Z,11.21
2022-11-27T00:13:51.337Z,11.73
2022-11-27T00:16:19.770Z,11.80
2022-11-27T00:18:46.795Z,11.46
2022-11-27T00:21:22.521Z,11.55
2022-11-27T00:23:50.974Z,10.99
2022-11-27T00:26:18.052Z,11.31
2022-11-27T00:28:45.208Z,11.14
2022-11-27T00:31:27.130Z,11.19
2022-11-27T00:33:58.076Z,11.09
2022-11-27T00:36:27.312Z,11.04
2022-11-27T00:38:54.075Z,10.45
2022-11-27T00:41:23.495Z,10.87
2022-11-27T00:43:50.172Z,10.58
2022-11-27T00:46:27.856Z,10.21
2022-11-27T00:48:56.035Z,10.23
2022-11-27T00:51:24.348Z,10.08
2022-11-27T00:53:51.464Z,10.19
2022-11-27T00:56:25.009Z,10.07
2022-11-27T00:58:53.061Z,10.23
2022-11-27T01:01:26.020Z,9.98
2022-11-27T01:03:54.268Z,10.20
2022-11-27T01:06:21.789Z,9.80
2022-11-27T01:08:48.808Z,10.01
2022-11-27T01:11:20.127Z,9.67
2022-11-27T01:13:48.059Z,9.28
2022-11-27T01:16:20.905Z,9.70
2022-11-27T01:18:49.854Z,9.59
2022-11-27T01:21:19.927Z,9.74
2022-11-27T01:23:48.407Z,9.44
2022-11-27T01:26:17.746Z,8.95
2022-11-27T01:28:45.150Z,8.89
2022-11-27T01:31:23.973Z,8.90
2022-11-27T01:33:56.379Z,8.75
2022-11-27T01:36:23.642Z,9.05
2022-11-27T01:38:51.157Z,8.90
2022-11-27T01:41:21.269Z,8.81
2022-11-27T01:44:15.898Z,8.95
2022-11-27T01:46:48.868Z,9.18
2022-11-27T01:49:31.345Z,9.01
2022-11-27T01:52:15.144Z,9.10
2022-11-27T01:54:59.749Z,8.72
2022-11-27T01:57:47.374Z,8.57
2022-11-27T02:00:15.980Z,8.28
2022-11-27T02:02:44.131Z,8.10
2022-11-27T02:05:16.373Z,8.64
2022-11-27T02:07:44.868Z,8.61
2022-11-27T02:10:12.042Z,8.38
2022-11-27T02:12:41.742Z,8.18
2022-11-27T02:15:37.133Z,8.39
2022-11-27T02:18:32.419Z,8.07
2022-11-27T02:21:04.955Z,8.20
2022-11-27T02:23:49.536Z,8.49
2022-11-27T02:26:56.801Z,7.89
2022-11-27T02:29:29.537Z,7.88
2022-11-27T02:32:12.156Z,7.82
2022-11-27T02:34:57.792Z,7.60
2022-11-27T02:37:36.946Z,7.84
2022-11-27T02:40:03.569Z,7.44
2022-11-27T02:42:39.171Z,7.49
2022-11-27T02:45:16.923Z,7.32
2022-11-27T02:47:46.955Z,7.47
2022-11-27T02:50:26.223Z,7.52
2022-11-27T02:52:59.792Z,7.24
2022-11-27T02:55:32.284Z,7.42
2022-11-27T02:58:03.543Z,7.12
2022-11-27T03:00:35.072Z,7.26
2022-11-27T03:03:08.438Z,6.85
2022-11-27T03:05:41.858Z,7.38
2022-11-27T03:08:28.329Z,7.27
2022-11-27T03:11:05.723Z,7.16
2022-11-27T03:13:41.272Z,7.12
2022-11-27T03:16:25.577Z,7.10
2022-11-27T03:18:57.891Z,7.15
2022-11-27T03:21:41.064Z,7.49
2022-11-27T03:24:10.076Z,7.09
2022-11-27T03:26:39.070Z,7.10
2022-11-27T03:29:12.183Z,7.02
2022-11-27T03:31:39.196Z,7.83
2022-11-27T03:34:06.582Z,7.44
2022-11-27T03:36:33.467Z,6.98
2022-11-27T03:39:00.555Z,7.67
2022-11-27T03:41:53.905Z,7.34
2022-11-27T03:44:46.193Z,7.61
2022-11-27T03:47:39.835Z,7.84
2022-11-27T03:50:41.433Z,7.59
2022-11-27T03:53:37.494Z,8.10
2022-11-27T03:56:50.941Z,7.83
2022-11-27T03:59:32.832Z,8.16
2022-11-27T04:01:59.717Z,7.78
2022-11-27T04:04:26.448Z,7.84
2022-11-27T04:06:53.342Z,8.01
2022-11-27T04:09:20.238Z,8.38
2022-11-27T04:11:47.335Z,8.56
2022-11-27T04:14:14.007Z,8.39
2022-11-27T04:16:40.699Z,8.54
2022-11-27T04:19:08.086Z,8.86
2022-11-27T04:21:34.777Z,8.98
2022-11-27T04:24:01.433Z,8.94
2022-11-27T04:26:28.360Z,9.44
2022-11-27T04:28:55.433Z,9.47
2022-11-27T04:31:22.405Z,9.82
2022-11-27T04:33:49.384Z,9.77
2022-11-27T04:36:16.092Z,9.91
2022-11-27T04:38:42.856Z,10.46
2022-11-27T04:41:09.782Z,9.84
2022-11-27T04:43:36.719Z,10.21
2022-11-27T04:46:03.580Z,11.10
2022-11-27T04:48:30.462Z,10.70
2022-11-27T04:50:57.172Z,11.03
2022-11-27T04:53:23.909Z,11.64
2022-11-27T04:55:52.363Z,12.03
2022-11-27T04:58:19.279Z,11.79
2022-11-27T05:00:46.294Z,12.01
2022-11-27T05:03:13.541Z,12.08
2022-11-27T05:05:40.468Z,12.17
2022-11-27T05:08:07.135Z,12.22
2022-11-27T05:10:34.024Z,12.51
2022-11-27T05:13:00.688Z,12.42
2022-11-27T05:15:27.599Z,12.72
2022-11-27T05:17:54.464Z,12.87
2022-11-27T05:20:21.116Z,12.80
2022-11-27T05:22:49.557Z,13.11
2022-11-27T05:25:16.323Z,12.98
2022-11-27T05:27:43.050Z,13.47
2022-11-27T05:30:09.931Z,13.01
2022-11-27T05:32:36.898Z,13.64
2022-11-27T05:35:03.865Z,14.27
2022-11-27T05:37:30.760Z,13.85
2022-11-27T05:39:57.417Z,13.58
2022-11-27T05:42:24.333Z,14.47
2022-11-27T05:44:56.691Z,14.37
2022-11-27T05:47:25.035Z,14.33
2022-11-27T05:49:51.770Z,14.58
2022-11-27T05:52:18.648Z,13.91
2022-11-27T05:54:45.493Z,14.78
2022-11-27T05:57:12.359Z,14.30
2022-11-27T05:59:39.073Z,14.63
2022-11-27T06:02:06.178Z,14.48
2022-11-27T06:04:34.540Z,14.16
2022-11-27T06:07:01.620Z,14.20
2022-11-27T06:09:28.516Z,14.27
2022-11-27T06:11:55.369Z,14.22
2022-11-27T06:14:22.101Z,14.44
2022-11-27T06:16:49.153Z,15.07
2022-11-27T06:19:15.870Z,14.77
2022-11-27T06:21:43.154Z,14.41
2022-11-27T06:24:10.859Z,14.69
2022-11-27T06:26:37.836Z,13.90
2022-11-27T06:29:04.681Z,14.03
2022-11-27T06:31:32.981Z,14.85
2022-11-27T06:34:00.353Z,14.58
2022-11-27T06:36:31.067Z,14.61
2022-11-27T06:38:58.167Z,14.88
2022-11-27T06:41:27.210Z,15.04
2022-11-27T06:43:54.933Z,14.87
2022-11-27T06:46:23.301Z,14.61
2022-11-27T06:48:52.700Z,14.23
2022-11-27T06:51:25.138Z,14.55
2022-11-27T06:53:53.604Z,14.36
2022-11-27T06:56:24.327Z,14.12
2022-11-27T06:58:55.667Z,14.23
2022-11-27T07:01:24.263Z,13.75
2022-11-27T07:03:51.709Z,14.38
2022-11-27T07:06:21.876Z,13.94
2022-11-27T07:08:49.193Z,13.99
2022-11-27T07:11:28.117Z,13.59
2022-11-27T07:13:57.522Z,12.81
2022-11-27T07:16:25.964Z,13.33
2022-11-27T07:18:55.965Z,13.23
2022-11-27T07:21:22.969Z,13.02
2022-11-27T07:23:50.049Z,13.34
2022-11-27T07:26:20.204Z,13.26
2022-11-27T07:28:48.268Z,13.54
2022-11-27T07:31:19.732Z,12.62
2022-11-27T07:33:46.616Z,13.13
2022-11-27T07:36:21.650Z,13.71
2022-11-27T07:38:49.311Z,13.56
2022-11-27T07:41:16.926Z,12.75
2022-11-27T07:43:44.871Z,12.60
2022-11-27T07:46:16.148Z,12.92
2022-11-27T07:48:43.215Z,12.77
2022-11-27T07:51:12.535Z,12.03
2022-11-27T07:53:40.934Z,12.44
2022-11-27T07:56:10.838Z,12.58
2022-11-27T07:58:37.883Z,11.98
2022-11-27T08:01:10.107Z,11.93
2022-11-27T08:03:37.992Z,12.03
2022-11-27T08:06:05.589Z,11.55
2022-11-27T08:08:33.279Z,11.71
2022-11-27T08:11:00.039Z,11.94
2022-11-27T08:13:26.718Z,13.44
2022-11-27T08:15:54.111Z,11.63
2022-11-27T08:18:21.127Z,15.20
2022-11-27T08:20:47.819Z,16.67
2022-11-27T08:23:14.494Z,11.56
2022-11-27T08:25:41.531Z,11.31
2022-11-27T08:28:08.481Z,13.97
2022-11-27T08:30:35.389Z,13.53
2022-11-27T08:33:02.288Z,12.98
2022-11-27T08:35:29.009Z,10.41
2022-11-27T08:37:56.335Z,10.25
2022-11-27T08:40:23.125Z,10.14
2022-11-27T08:42:49.848Z,10.49
2022-11-27T08:45:16.803Z,9.94
2022-11-27T08:47:43.482Z,10.19
2022-11-27T08:50:10.803Z,10.06
2022-11-27T08:52:37.680Z,10.13
2022-11-27T08:55:05.148Z,9.99
2022-11-27T08:57:31.892Z,10.24
2022-11-27T08:59:58.732Z,10.70
2022-11-27T09:02:25.650Z,12.81
2022-11-27T09:04:52.677Z,12.31
2022-11-27T09:07:19.989Z,10.84
2022-11-27T09:09:47.054Z,10.47
2022-11-27T09:12:13.899Z,10.60
2022-11-27T09:14:40.846Z,10.82
2022-11-27T09:17:07.757Z,10.73
2022-11-27T09:19:34.766Z,11.25
2022-11-27T09:22:01.493Z,11.34
2022-11-27T09:24:28.260Z,11.49
2022-11-27T09:26:55.124Z,10.29
2022-11-27T09:29:22.193Z,10.24
2022-11-27T09:31:49.143Z,10.09
2022-11-27T09:34:16.098Z,13.72
2022-11-27T09:36:42.954Z,13.23
2022-11-27T09:39:09.819Z,12.61
2022-11-27T09:41:51.454Z,9.34
2022-11-27T09:44:24.466Z,9.91
2022-11-27T09:46:54.199Z,9.68
2022-11-27T09:49:29.039Z,9.66
2022-11-27T09:52:35.149Z,10.09
2022-11-27T09:55:15.190Z,11.52
2022-11-27T09:57:52.454Z,11.96
2022-11-27T10:00:20.574Z,11.35
2022-11-27T10:02:48.317Z,11.12
2022-11-27T10:05:22.796Z,11.72
2022-11-27T10:07:52.376Z,11.99
2022-11-27T10:10:38.856Z,10.61
2022-11-27T10:13:36.161Z,10.88
2022-11-27T10:16:50.755Z,9.97
2022-11-27T10:19:34.344Z,10.06
2022-11-27T10:22:24.768Z,25.51
2022-11-27T10:25:11.504Z,17.71
2022-11-27T10:27:52.221Z,12.09
2022-11-27T10:30:21.448Z,13.11
2022-11-27T10:32:56.414Z,17.63
2022-11-27T10:35:30.330Z,16.53
2022-11-27T10:38:07.040Z,10.42
2022-11-27T10:40:42.893Z,10.09
2022-11-27T10:43:20.009Z,10.45
2022-11-27T10:45:51.785Z,10.83
2022-11-27T10:48:19.445Z,10.98
2022-11-27T10:50:46.931Z,12.78
2022-11-27T10:53:25.302Z,19.34
2022-11-27T10:56:17.108Z,13.69
2022-11-27T10:59:06.674Z,12.27
2022-11-27T11:01:48.406Z,10.89
2022-11-27T11:04:38.486Z,10.59
2022-11-27T11:07:25.793Z,12.76
2022-11-27T11:09:54.220Z,10.92
2022-11-27T11:12:24.207Z,10.48
2022-11-27T11:14:53.555Z,10.32
2022-11-27T11:17:30.577Z,10.86
2022-11-27T11:19:57.384Z,11.03
2022-11-27T11:22:24.834Z,11.24
2022-11-27T11:24:53.725Z,12.50
2022-11-27T11:27:29.866Z,12.24
2022-11-27T11:29:59.823Z,12.90
2022-11-27T11:32:31.700Z,11.29
2022-11-27T11:35:27.010Z,11.44
2022-11-27T11:37:56.139Z,11.08
2022-11-27T11:40:30.854Z,11.00
2022-11-27T11:43:07.215Z,11.66
2022-11-27T11:45:35.028Z,12.86
2022-11-27T11:48:20.596Z,15.80
2022-11-27T11:51:07.949Z,14.34
2022-11-27T11:53:39.129Z,11.36
2022-11-27T11:56:21.949Z,9.88
2022-11-27T11:59:02.841Z,9.17
2022-11-27T12:01:44.856Z,10.69
2022-11-27T12:04:49.384Z,12.77
2022-11-27T12:07:52.541Z,10.45
2022-11-27T12:10:19.947Z,10.39
2022-11-27T12:13:33.141Z,11.19
2022-11-27T12:16:34.186Z,9.61
2022-11-27T12:19:54.112Z,10.06
2022-11-27T12:22:40.564Z,10.13
2022-11-27T12:25:25.426Z,10.29
2022-11-27T12:28:10.782Z,12.74
2022-11-27T12:30:59.253Z,43.04
2022-11-27T12:33:52.255Z,26.73
2022-11-27T12:36:56.135Z,14.40
2022-11-27T12:39:50.363Z,12.11
2022-11-27T12:42:38.532Z,10.35
2022-11-27T12:45:23.577Z,10.96
2022-11-27T12:48:16.553Z,10.40
2022-11-27T12:51:07.960Z,10.52
2022-11-27T12:53:47.487Z,11.03
2022-11-27T12:56:33.363Z,10.81
2022-11-27T12:59:22.620Z,10.36
2022-11-27T13:02:29.247Z,10.98
2022-11-27T13:05:11.968Z,10.12
2022-11-27T13:07:55.358Z,17.95
2022-11-27T13:10:47.386Z,16.52
2022-11-27T13:13:21.996Z,17.90
2022-11-27T13:15:57.752Z,11.40
2022-11-27T13:18:39.669Z,11.29
2022-11-27T13:21:16.482Z,11.74
2022-11-27T13:23:43.728Z,11.70
2022-11-27T13:26:26.124Z,11.93
2022-11-27T13:28:59.460Z,12.76
2022-11-27T13:31:30.814Z,13.49
2022-11-27T13:34:17.369Z,13.74
2022-11-27T13:36:54.908Z,11.82
2022-11-27T13:39:27.532Z,11.70
2022-11-27T13:42:06.691Z,13.20
2022-11-27T13:44:40.102Z,19.94
2022-11-27T13:47:14.144Z,12.30
2022-11-27T13:49:43.259Z,14.61
2022-11-27T13:52:18.116Z,12.32
2022-11-27T13:54:56.176Z,12.17
2022-11-27T13:57:25.150Z,13.51
2022-11-27T14:00:13.827Z,12.97
2022-11-27T14:02:45.485Z,11.74
2022-11-27T14:05:14.669Z,12.95
2022-11-27T14:10:47.932Z,21.10
2022-11-27T14:13:15.066Z,12.62
2022-11-27T14:15:41.781Z,11.70
2022-11-27T14:18:21.139Z,10.87
2022-11-27T14:20:52.561Z,10.56
2022-11-27T14:23:31.823Z,11.22
2022-11-27T14:26:03.761Z,12.27
2022-11-27T14:28:32.427Z,12.94
2022-11-27T14:31:02.271Z,15.17
2022-11-27T14:33:47.397Z,12.49
2022-11-27T14:36:31.784Z,11.94
2022-11-27T14:38:59.002Z,11.74
2022-11-27T14:41:27.534Z,14.28
2022-11-27T14:44:01.305Z,14.12
2022-11-27T14:46:28.840Z,13.39
2022-11-27T14:48:56.346Z,14.74
2022-11-27T14:51:33.568Z,11.95
2022-11-27T14:54:05.249Z,10.96
2022-11-27T14:56:44.039Z,11.69
2022-11-27T14:59:17.491Z,12.62
2022-11-27T15:01:46.406Z,13.62
2022-11-27T15:04:40.967Z,17.38
2022-11-27T15:07:22.645Z,23.31
2022-11-27T15:09:53.034Z,17.94
2022-11-27T15:12:26.060Z,12.01
2022-11-27T15:14:58.299Z,11.84
2022-11-27T15:17:28.583Z,12.46
2022-11-27T15:19:57.455Z,13.08
2022-11-27T15:22:24.426Z,14.03
2022-11-27T15:25:07.122Z,14.76
2022-11-27T15:27:46.019Z,13.91
2022-11-27T15:30:18.955Z,14.25
2022-11-27T15:32:51.851Z,14.28
2022-11-27T15:35:26.318Z,12.57
2022-11-27T15:37:56.154Z,11.90
2022-11-27T15:40:38.619Z,12.25
2022-11-27T15:43:13.652Z,11.35
2022-11-27T15:45:42.407Z,16.68
2022-11-27T15:48:18.613Z,15.29
2022-11-27T15:50:51.425Z,19.12
2022-11-27T15:53:18.575Z,11.14
2022-11-27T15:55:45.282Z,11.26
2022-11-27T15:58:11.937Z,10.60
2022-11-27T16:00:40.444Z,10.94
2022-11-27T16:03:07.130Z,11.31
2022-11-27T16:05:33.980Z,11.99
2022-11-27T16:08:00.796Z,13.06
2022-11-27T16:10:27.839Z,12.98
2022-11-27T16:12:55.251Z,12.29
2022-11-27T16:15:23.561Z,11.35
2022-11-27T16:17:50.618Z,11.32
2022-11-27T16:20:17.396Z,11.21
2022-11-27T16:22:44.293Z,12.41
2022-11-27T16:25:11.023Z,18.64
2022-11-27T16:27:37.897Z,26.05
2022-11-27T16:30:05.122Z,28.39
2022-11-27T16:32:32.044Z,19.79
2022-11-27T16:34:58.693Z,14.51
2022-11-27T16:37:25.503Z,17.56
2022-11-27T16:39:52.354Z,11.88
2022-11-27T16:42:19.255Z,10.99
2022-11-27T16:44:45.886Z,11.25
2022-11-27T16:47:12.589Z,12.79
2022-11-27T16:49:39.464Z,12.16
2022-11-27T16:52:06.233Z,11.28
2022-11-27T16:54:32.888Z,11.06
2022-11-27T16:56:59.874Z,11.06
2022-11-27T16:59:26.757Z,11.98
2022-11-27T17:01:53.641Z,10.98
2022-11-27T17:04:21.000Z,9.97
2022-11-27T17:06:49.769Z,15.65
2022-11-27T17:09:17.387Z,17.07
2022-11-27T17:11:48.586Z,11.63
2022-11-27T17:14:16.683Z,11.73
2022-11-27T17:16:43.462Z,10.26
2022-11-27T17:19:15.015Z,10.30
2022-11-27T17:21:42.116Z,10.63
2022-11-27T17:24:15.439Z,10.87
2022-11-27T17:26:44.107Z,11.26
2022-11-27T17:29:12.841Z,10.86
2022-11-27T17:31:40.053Z,11.03
2022-11-27T17:34:07.817Z,10.83
2022-11-27T17:36:37.140Z,12.21
2022-11-27T17:39:06.315Z,18.57
2022-11-27T17:41:34.503Z,17.75
2022-11-27T17:44:05.273Z,12.96
2022-11-27T17:46:34.289Z,11.47
2022-11-27T17:49:02.201Z,11.60
2022-11-27T17:51:33.743Z,10.70
2022-11-27T17:54:01.696Z,10.79
2022-11-27T17:56:29.446Z,10.65
2022-11-27T17:58:56.611Z,10.33
2022-11-27T18:01:25.490Z,10.60
2022-11-27T18:03:59.661Z,10.89
2022-11-27T18:06:26.837Z,10.65
2022-11-27T18:08:55.640Z,10.78
2022-11-27T18:11:25.216Z,10.68
2022-11-27T18:13:51.862Z,11.50
2022-11-27T18:16:23.826Z,11.67
2022-11-27T18:18:51.391Z,11.70
2022-11-27T18:21:20.533Z,10.54
2022-11-27T18:24:21.403Z,11.38
2022-11-27T18:27:06.499Z,13.91
2022-11-27T18:29:23.508Z,17.29
2022-11-27T18:31:51.006Z,11.93
2022-11-27T18:34:17.879Z,12.09
2022-11-27T18:36:45.770Z,12.12
2022-11-27T18:39:13.161Z,11.28
2022-11-27T18:41:40.088Z,14.65
2022-11-27T18:44:07.217Z,18.35
2022-11-27T18:46:34.058Z,15.56
2022-11-27T18:49:00.728Z,11.68
2022-11-27T18:51:27.380Z,12.37
2022-11-27T18:53:55.809Z,11.94
2022-11-27T18:56:25.647Z,12.34
2022-11-27T18:58:54.056Z,11.93
2022-11-27T19:01:25.039Z,12.13
2022-11-27T19:03:52.731Z,11.46
2022-11-27T19:06:21.961Z,12.10
2022-11-27T19:08:48.946Z,11.94
2022-11-27T19:11:21.699Z,14.29
2022-11-27T19:13:50.276Z,15.87
2022-11-27T19:16:20.835Z,16.96
2022-11-27T19:18:47.673Z,12.14
2022-11-27T19:21:21.270Z,11.74
2022-11-27T19:23:49.754Z,12.32
2022-11-27T19:26:21.146Z,11.99
2022-11-27T19:28:48.978Z,11.92
2022-11-27T19:31:16.310Z,12.43
2022-11-27T19:33:43.882Z,11.47
2022-11-27T19:36:13.014Z,12.66
2022-11-27T19:38:41.899Z,13.58
2022-11-27T19:41:16.956Z,14.00
2022-11-27T19:43:45.107Z,11.68
2022-11-27T19:46:24.252Z,11.69
2022-11-27T19:48:55.024Z,11.67
2022-11-27T19:51:22.542Z,12.11
2022-11-27T19:53:49.488Z,12.50
2022-11-27T19:56:16.467Z,12.07
2022-11-27T19:58:43.676Z,11.67
2022-11-27T20:01:18.154Z,12.15
2022-11-27T20:03:46.130Z,12.06
2022-11-27T20:06:19.004Z,11.68
2022-11-27T20:08:47.821Z,11.85
2022-11-27T20:11:20.457Z,11.81
2022-11-27T20:13:48.216Z,11.51
2022-11-27T20:16:18.371Z,11.01
2022-11-27T20:18:46.106Z,11.07
2022-11-27T20:21:18.604Z,11.24
2022-11-27T20:23:46.896Z,11.48
2022-11-27T20:26:16.838Z,11.33
2022-11-27T20:28:44.506Z,11.40
2022-11-27T20:31:18.050Z,13.69
2022-11-27T20:33:44.996Z,17.01
2022-11-27T20:36:13.117Z,12.33
2022-11-27T20:38:39.930Z,11.50
2022-11-27T20:41:09.066Z,11.27
2022-11-27T20:43:36.283Z,10.89
2022-11-27T20:46:03.971Z,11.21
2022-11-27T20:48:31.026Z,11.17
2022-11-27T20:51:08.729Z,11.36
2022-11-27T20:53:35.891Z,11.89
2022-11-27T20:56:07.641Z,11.16
2022-11-27T20:58:36.161Z,17.45
2022-11-27T21:01:12.542Z,18.12
2022-11-27T21:03:39.339Z,12.39
2022-11-27T21:06:06.168Z,11.88
2022-11-27T21:08:33.008Z,11.93
2022-11-27T21:11:11.703Z,12.43
2022-11-27T21:13:38.807Z,12.00
2022-11-27T21:16:11.399Z,12.80
2022-11-27T21:18:38.817Z,12.06
2022-11-27T21:21:11.719Z,12.34
2022-11-27T21:23:40.248Z,11.70
2022-11-27T21:26:08.857Z,12.09
2022-11-27T21:28:35.692Z,12.29
2022-11-27T21:31:17.064Z,11.43
2022-11-27T21:33:49.089Z,12.70
2022-11-27T21:36:20.352Z,12.58
2022-11-27T21:38:47.355Z,12.21
2022-11-27T21:41:14.313Z,11.95
2022-11-27T21:43:41.248Z,12.23
2022-11-27T21:46:09.896Z,14.18
2022-11-27T21:48:36.586Z,17.85
2022-11-27T21:51:04.845Z,16.73
2022-11-27T21:53:32.877Z,12.25
2022-11-27T21:56:04.633Z,12.32
2022-11-27T21:58:34.112Z,12.33
2022-11-27T22:01:02.337Z,12.38
2022-11-27T22:03:28.986Z,12.37
2022-11-27T22:06:01.662Z,11.71
2022-11-27T22:08:30.099Z,12.17
2022-11-27T22:10:57.190Z,12.66
2022-11-27T22:13:24.054Z,12.38
2022-11-27T22:15:50.791Z,12.67
2022-11-27T22:18:18.073Z,13.13
2022-11-27T22:20:45.158Z,12.89
2022-11-27T22:23:11.790Z,12.95
2022-11-27T22:25:38.530Z,12.30
2022-11-27T22:28:05.340Z,12.23
2022-11-27T22:30:32.425Z,12.56
2022-11-27T22:32:59.117Z,12.45
2022-11-27T22:35:26.106Z,12.67
2022-11-27T22:37:53.539Z,12.95
2022-11-27T22:40:22.337Z,13.21
2022-11-27T22:42:49.255Z,13.06
2022-11-27T22:45:16.165Z,13.31
2022-11-27T22:47:43.017Z,13.03
2022-11-27T22:50:09.712Z,12.85
2022-11-27T22:52:36.360Z,12.89
2022-11-27T22:55:03.539Z,13.15
2022-11-27T22:57:30.239Z,13.74
2022-11-27T22:59:57.107Z,13.13
2022-11-27T23:02:24.068Z,12.77
2022-11-27T23:04:50.750Z,12.97
2022-11-27T23:07:22.271Z,13.32
2022-11-27T23:09:51.742Z,12.72
2022-11-27T23:12:18.580Z,12.53
2022-11-27T23:14:45.403Z,12.62
2022-11-27T23:17:12.044Z,12.92
2022-11-27T23:19:38.693Z,12.57
2022-11-27T23:22:05.637Z,12.87
2022-11-27T23:24:32.312Z,12.44
2022-11-27T23:26:58.977Z,12.75
2022-11-27T23:29:25.757Z,12.90
2022-11-27T23:31:52.641Z,12.74
2022-11-27T23:34:19.320Z,12.30
2022-11-27T23:36:46.027Z,12.66
2022-11-27T23:39:13.999Z,12.31
2022-11-27T23:41:41.557Z,12.21
2022-11-27T23:44:08.508Z,12.45
2022-11-27T23:46:35.573Z,11.98
2022-11-27T23:49:02.420Z,12.46
2022-11-27T23:51:31.779Z,12.06
2022-11-27T23:53:59.770Z,12.01
2022-11-27T23:56:29.784Z,12.01
2022-11-27T23:58:58.343Z,12.30
